createdAt,value
2017-11-24T00:01:10.391Z,71.90
2017-11-24T00:03:37.887Z,71.90
2017-11-24T00:06:05.345Z,72.10
2017-11-24T00:08:32.802Z,72.10
2017-11-24T00:11:00.307Z,72.40
2017-11-24T00:13:27.758Z,72.60
2017-11-24T00:15:55.222Z,72.80
2017-11-24T00:18:22.675Z,72.90
2017-11-24T00:20:50.152Z,72.70
2017-11-24T00:23:18.406Z,72.70
2017-11-24T00:25:45.867Z,72.60
2017-11-24T00:28:13.433Z,73.00
2017-11-24T00:30:40.899Z,73.00
2017-11-24T00:33:08.352Z,73.30
2017-11-24T00:35:35.838Z,73.60
2017-11-24T00:38:03.309Z,73.80
2017-11-24T00:40:30.820Z,73.70
2017-11-24T00:42:58.341Z,73.70
2017-11-24T00:45:25.815Z,73.60
2017-11-24T00:47:53.384Z,73.90
2017-11-24T00:50:20.838Z,74.00
2017-11-24T00:52:48.302Z,73.90
2017-11-24T00:55:15.761Z,73.90
2017-11-24T00:57:44.137Z,74.00
2017-11-24T01:00:11.625Z,74.00
2017-11-24T01:02:39.852Z,74.20
2017-11-24T01:05:07.306Z,74.10
2017-11-24T01:07:34.782Z,74.10
2017-11-24T01:10:02.250Z,74.30
2017-11-24T01:12:30.483Z,74.90
2017-11-24T01:14:57.937Z,74.20
2017-11-24T01:17:25.414Z,74.20
2017-11-24T01:19:52.882Z,74.30
2017-11-24T01:22:20.342Z,74.40
2017-11-24T01:24:47.811Z,74.30
2017-11-24T01:27:15.283Z,74.20
2017-11-24T01:29:43.538Z,74.20
2017-11-24T01:34:45.374Z,74.00
2017-11-24T01:37:12.826Z,73.80
2017-11-24T01:39:40.286Z,74.00
2017-11-24T01:42:07.745Z,73.90
2017-11-24T01:44:35.215Z,73.90
2017-11-24T01:47:02.672Z,73.60
2017-11-24T01:49:30.251Z,73.80
2017-11-24T01:51:57.712Z,74.80
2017-11-24T01:54:25.270Z,74.10
2017-11-24T01:56:52.741Z,74.10
2017-11-24T01:59:21.003Z,73.80
2017-11-24T02:01:48.552Z,73.70
2017-11-24T02:04:16.011Z,73.90
2017-11-24T02:06:43.568Z,73.90
2017-11-24T02:09:11.026Z,73.90
2017-11-24T02:11:38.495Z,74.20
2017-11-24T02:14:06.723Z,74.30
2017-11-24T02:16:34.190Z,74.20
2017-11-24T02:19:01.650Z,74.00
2017-11-24T02:21:29.131Z,73.90
2017-11-24T02:23:56.688Z,74.20
2017-11-24T02:26:24.166Z,73.90
2017-11-24T02:28:52.418Z,73.90
2017-11-24T02:31:19.874Z,73.80
2017-11-24T02:33:47.352Z,74.00
2017-11-24T02:36:15.577Z,74.10
2017-11-24T02:38:43.065Z,74.00
2017-11-24T02:41:10.539Z,73.90
2017-11-24T02:43:38.769Z,74.20
2017-11-24T02:46:06.244Z,74.10
2017-11-24T02:48:33.802Z,74.30
2017-11-24T02:51:01.270Z,74.50
2017-11-24T02:53:28.813Z,74.30
2017-11-24T02:55:56.382Z,73.90
2017-11-24T02:58:23.851Z,74.00
2017-11-24T03:00:52.118Z,74.60
2017-11-24T03:03:19.676Z,74.60
2017-11-24T03:05:47.190Z,74.40
2017-11-24T03:08:14.709Z,74.40
2017-11-24T03:10:42.955Z,74.20
2017-11-24T03:13:10.412Z,74.20
2017-11-24T03:15:37.894Z,74.20
2017-11-24T03:18:05.397Z,74.20
2017-11-24T03:20:32.902Z,74.40
2017-11-24T03:23:00.359Z,74.30
2017-11-24T03:25:27.909Z,74.40
2017-11-24T03:27:56.884Z,74.40
2017-11-24T03:30:24.380Z,74.40
2017-11-24T03:32:52.615Z,74.20
2017-11-24T03:35:20.094Z,74.20
2017-11-24T03:37:49.142Z,74.80
2017-11-24T03:40:16.638Z,74.70
2017-11-24T03:42:44.107Z,74.70
2017-11-24T03:45:11.579Z,75.10
2017-11-24T03:47:39.834Z,75.80
2017-11-24T03:50:07.391Z,75.70
2017-11-24T03:52:34.878Z,75.70
2017-11-24T03:55:03.111Z,76.40
2017-11-24T03:57:30.682Z,76.40
2017-11-24T03:59:58.243Z,76.10
2017-11-24T04:02:25.713Z,76.10
2017-11-24T04:04:53.947Z,75.80
2017-11-24T04:07:21.427Z,75.70
2017-11-24T04:09:49.665Z,75.70
2017-11-24T04:12:17.136Z,75.70
2017-11-24T04:14:44.617Z,75.90
2017-11-24T04:17:12.080Z,76.30
2017-11-24T04:19:39.546Z,76.00
2017-11-24T04:22:07.787Z,76.50
2017-11-24T04:24:35.241Z,76.00
2017-11-24T04:27:02.707Z,76.20
2017-11-24T04:29:30.282Z,76.00
2017-11-24T04:31:57.840Z,76.20
2017-11-24T04:34:25.415Z,76.30
2017-11-24T04:36:53.673Z,76.70
2017-11-24T04:39:21.143Z,76.60
2017-11-24T04:41:49.373Z,76.70
2017-11-24T04:44:16.843Z,76.70
2017-11-24T04:46:44.310Z,77.00
2017-11-24T04:49:11.874Z,76.80
2017-11-24T04:51:39.435Z,77.20
2017-11-24T04:54:06.910Z,77.00
2017-11-24T04:56:35.140Z,76.80
2017-11-24T04:59:02.622Z,76.70
2017-11-24T05:01:30.179Z,76.90
2017-11-24T05:03:57.741Z,76.80
2017-11-24T05:06:25.204Z,76.80
2017-11-24T05:08:53.451Z,77.00
2017-11-24T05:11:20.923Z,77.00
2017-11-24T05:13:48.648Z,77.20
2017-11-24T05:16:16.151Z,77.50
2017-11-24T05:18:43.706Z,77.50
2017-11-24T05:21:11.634Z,77.40
2017-11-24T05:23:39.141Z,77.40
2017-11-24T05:26:07.415Z,77.70
2017-11-24T05:28:35.681Z,78.20
2017-11-24T05:31:03.303Z,77.40
2017-11-24T05:33:30.810Z,77.30
2017-11-24T05:35:58.370Z,77.20
2017-11-24T05:38:25.831Z,77.50
2017-11-24T05:40:54.312Z,77.90
2017-11-24T05:43:22.561Z,78.00
2017-11-24T05:45:51.558Z,78.20
2017-11-24T05:48:19.023Z,78.10
2017-11-24T05:50:46.592Z,78.30
2017-11-24T05:53:14.853Z,77.90
2017-11-24T05:55:42.419Z,77.80
2017-11-24T05:58:12.326Z,78.20
2017-11-24T06:00:39.808Z,78.00
2017-11-24T06:03:08.051Z,77.70
2017-11-24T06:05:35.526Z,77.70
2017-11-24T06:08:03.771Z,77.90
2017-11-24T06:10:31.243Z,77.90
2017-11-24T06:12:58.807Z,77.90
2017-11-24T06:15:26.272Z,77.70
2017-11-24T06:17:53.743Z,77.70
2017-11-24T06:20:22.003Z,77.80
2017-11-24T06:22:50.256Z,78.10
2017-11-24T06:25:17.720Z,77.90
2017-11-24T06:27:45.223Z,78.10
2017-11-24T06:30:12.737Z,78.30
2017-11-24T06:32:40.231Z,78.30
2017-11-24T06:35:07.703Z,78.20
2017-11-24T06:37:35.212Z,78.10
2017-11-24T06:40:02.686Z,78.30
2017-11-24T06:42:30.930Z,78.20
2017-11-24T06:44:58.498Z,78.10
2017-11-24T06:47:26.067Z,78.10
2017-11-24T06:49:53.552Z,78.40
2017-11-24T06:52:21.774Z,79.10
2017-11-24T06:54:49.353Z,79.00
2017-11-24T06:57:16.924Z,79.00
2017-11-24T06:59:44.411Z,79.20
2017-11-24T07:02:12.887Z,79.00
2017-11-24T07:04:40.358Z,79.00
2017-11-24T07:07:07.829Z,79.00
2017-11-24T07:09:35.414Z,78.70
2017-11-24T07:12:02.999Z,78.70
2017-11-24T07:14:31.234Z,78.80
2017-11-24T07:16:58.705Z,78.70
2017-11-24T07:19:26.174Z,78.70
2017-11-24T07:21:53.650Z,78.50
2017-11-24T07:24:21.887Z,79.00
2017-11-24T07:26:49.464Z,78.00
2017-11-24T07:29:16.942Z,78.00
2017-11-24T07:31:45.187Z,77.60
2017-11-24T07:34:12.666Z,77.60
2017-11-24T07:36:40.903Z,77.50
2017-11-24T07:39:08.375Z,77.50
2017-11-24T07:41:35.953Z,77.70
2017-11-24T07:44:04.203Z,77.80
2017-11-24T07:46:31.693Z,77.60
2017-11-24T07:48:59.927Z,77.50
2017-11-24T07:51:27.399Z,77.40
2017-11-24T07:53:54.985Z,77.20
2017-11-24T07:56:23.227Z,77.20
2017-11-24T07:58:50.711Z,77.00
2017-11-24T08:01:18.977Z,76.80
2017-11-24T08:03:46.547Z,76.80
2017-11-24T08:06:14.800Z,77.00
2017-11-24T08:08:42.275Z,76.90
2017-11-24T08:11:10.533Z,75.90
2017-11-24T08:13:38.062Z,76.60
2017-11-24T08:16:05.536Z,76.50
2017-11-24T08:18:33.124Z,76.30
2017-11-24T08:21:01.362Z,75.80
2017-11-24T08:23:29.010Z,76.30
2017-11-24T08:25:56.475Z,76.70
2017-11-24T08:28:23.947Z,77.10
2017-11-24T08:30:51.427Z,76.90
2017-11-24T08:33:18.975Z,76.70
2017-11-24T08:35:46.472Z,75.90
2017-11-24T08:38:13.935Z,76.20
2017-11-24T08:40:41.470Z,76.20
2017-11-24T08:43:09.707Z,75.80
2017-11-24T08:45:37.200Z,75.80
2017-11-24T08:48:11.294Z,76.10
2017-11-24T08:50:38.781Z,76.00
2017-11-24T08:53:06.264Z,76.40
2017-11-24T08:55:33.735Z,76.60
2017-11-24T08:58:01.199Z,76.40
2017-11-24T09:00:28.678Z,76.10
2017-11-24T09:02:57.648Z,76.10
2017-11-24T09:05:25.142Z,75.90
2017-11-24T09:07:52.604Z,75.80
2017-11-24T09:10:20.835Z,75.40
2017-11-24T09:12:48.309Z,75.30
2017-11-24T09:15:15.873Z,74.90
2017-11-24T09:17:43.329Z,74.60
2017-11-24T09:20:10.800Z,74.80
2017-11-24T09:22:38.351Z,74.60
2017-11-24T09:25:05.906Z,74.10
2017-11-24T09:27:33.421Z,73.00
2017-11-24T09:30:00.882Z,72.80
2017-11-24T09:32:28.443Z,72.90
2017-11-24T09:34:55.910Z,72.20
2017-11-24T09:37:23.412Z,71.40
2017-11-24T09:39:51.639Z,70.60
2017-11-24T09:42:19.238Z,69.70
2017-11-24T09:44:46.708Z,69.70
2017-11-24T09:47:15.025Z,69.70
2017-11-24T09:49:42.497Z,69.60
2017-11-24T09:52:09.981Z,70.00
2017-11-24T09:54:37.543Z,69.90
2017-11-24T09:57:05.015Z,69.70
2017-11-24T09:59:33.334Z,69.10
2017-11-24T10:02:00.806Z,68.90
2017-11-24T10:04:28.306Z,69.90
2017-11-24T10:06:56.573Z,69.40
2017-11-24T10:09:24.047Z,68.60
2017-11-24T10:11:52.288Z,69.00
2017-11-24T10:14:19.750Z,69.00
2017-11-24T10:16:48.082Z,68.70
2017-11-24T10:19:15.553Z,68.50
2017-11-24T10:24:41.896Z,67.60
2017-11-24T10:27:09.352Z,67.10
2017-11-24T10:29:36.944Z,66.90
2017-11-24T10:32:04.420Z,65.50
2017-11-24T10:34:31.870Z,65.50
2017-11-24T10:37:00.111Z,64.50
2017-11-24T10:39:27.655Z,64.50
2017-11-24T10:41:55.127Z,63.60
2017-11-24T10:44:22.620Z,64.60
2017-11-24T10:46:50.070Z,64.50
2017-11-24T10:49:17.539Z,64.60
2017-11-24T10:51:45.774Z,64.20
2017-11-24T10:54:13.242Z,64.10
2017-11-24T10:56:40.738Z,64.10
2017-11-24T10:59:08.990Z,64.20
2017-11-24T11:01:36.459Z,64.10
2017-11-24T11:04:04.693Z,65.20
2017-11-24T11:06:32.174Z,65.10
2017-11-24T11:08:59.643Z,65.10
2017-11-24T11:11:27.098Z,65.50
2017-11-24T11:13:55.329Z,66.10
2017-11-24T11:16:22.787Z,66.00
2017-11-24T11:18:50.257Z,66.30
2017-11-24T11:21:17.767Z,66.60
2017-11-24T11:23:45.293Z,67.00
2017-11-24T11:26:12.754Z,67.40
2017-11-24T11:28:40.312Z,67.60
2017-11-24T11:31:07.779Z,67.70
2017-11-24T11:33:36.017Z,67.70
2017-11-24T11:36:03.503Z,67.60
2017-11-24T11:38:30.983Z,68.40
2017-11-24T11:40:59.290Z,67.20
2017-11-24T11:43:26.784Z,67.20
2017-11-24T11:45:54.712Z,67.50
2017-11-24T11:48:22.179Z,67.40
2017-11-24T11:50:49.790Z,67.20
2017-11-24T11:53:17.404Z,67.80
2017-11-24T11:55:44.987Z,67.90
2017-11-24T11:58:12.541Z,67.50
2017-11-24T12:00:40.053Z,67.50
2017-11-24T12:03:07.623Z,68.00
2017-11-24T12:05:35.125Z,68.30
2017-11-24T12:08:02.744Z,68.50
2017-11-24T12:10:30.507Z,68.80
2017-11-24T12:12:57.976Z,68.60
2017-11-24T12:15:25.592Z,68.70
2017-11-24T12:17:53.089Z,69.20
2017-11-24T12:20:20.636Z,69.40
2017-11-24T12:22:48.194Z,69.40
2017-11-24T12:25:15.722Z,69.40
2017-11-24T12:27:43.355Z,69.00
2017-11-24T12:30:10.859Z,69.10
2017-11-24T12:32:38.326Z,69.60
2017-11-24T12:35:05.795Z,69.80
2017-11-24T12:37:33.389Z,69.50
2017-11-24T12:40:01.643Z,70.10
2017-11-24T12:42:29.106Z,70.10
2017-11-24T12:44:56.576Z,70.00
2017-11-24T12:47:24.123Z,70.30
2017-11-24T12:49:51.580Z,70.20
2017-11-24T12:52:19.047Z,70.50
2017-11-24T12:54:46.547Z,70.70
2017-11-24T12:57:14.061Z,71.10
2017-11-24T12:59:41.551Z,71.60
2017-11-24T13:02:09.773Z,75.10
2017-11-24T13:04:37.254Z,75.00
2017-11-24T13:07:04.736Z,76.40
2017-11-24T13:09:32.971Z,78.70
2017-11-24T13:12:00.430Z,78.60
2017-11-24T13:14:27.899Z,79.20
2017-11-24T13:16:55.427Z,79.70
2017-11-24T13:19:23.026Z,80.10
2017-11-24T13:21:51.350Z,82.40
2017-11-24T13:24:18.894Z,82.40
2017-11-24T13:26:46.429Z,82.70
2017-11-24T13:29:14.722Z,84.10
2017-11-24T13:31:42.301Z,83.90
2017-11-24T13:34:09.769Z,84.10
2017-11-24T13:36:37.242Z,84.40
2017-11-24T13:39:06.411Z,85.00
2017-11-24T13:41:33.903Z,85.00
2017-11-24T13:44:01.372Z,84.90
2017-11-24T13:46:29.618Z,86.40
2017-11-24T13:48:57.091Z,86.10
2017-11-24T13:51:24.625Z,86.00
2017-11-24T13:53:52.123Z,86.10
2017-11-24T13:56:19.612Z,86.80
2017-11-24T13:58:47.071Z,87.30
2017-11-24T14:01:14.602Z,88.10
2017-11-24T14:03:42.926Z,87.90
2017-11-24T14:06:10.468Z,87.90
2017-11-24T14:08:37.938Z,87.80
2017-11-24T14:11:05.454Z,88.40
2017-11-24T14:13:33.697Z,88.70
2017-11-24T14:16:01.176Z,88.50
2017-11-24T14:18:28.660Z,88.30
2017-11-24T14:20:56.184Z,88.10
2017-11-24T14:23:23.657Z,88.20
2017-11-24T14:25:51.987Z,88.00
2017-11-24T14:28:20.263Z,87.80
2017-11-24T14:30:47.737Z,87.80
2017-11-24T14:33:15.205Z,87.80
2017-11-24T14:35:42.775Z,87.90
2017-11-24T14:38:11.011Z,87.90
2017-11-24T14:40:38.490Z,87.90
2017-11-24T14:43:06.067Z,86.40
2017-11-24T14:45:34.304Z,85.70
2017-11-24T14:48:01.859Z,85.60
2017-11-24T14:50:29.322Z,86.50
2017-11-24T14:52:56.810Z,85.20
2017-11-24T14:55:24.374Z,84.80
2017-11-24T14:57:51.935Z,84.80
2017-11-24T15:00:20.212Z,85.70
2017-11-24T15:02:48.439Z,85.10
2017-11-24T15:05:15.914Z,85.10
2017-11-24T15:07:43.397Z,85.00
2017-11-24T15:10:11.626Z,85.10
2017-11-24T15:12:39.085Z,85.00
2017-11-24T15:15:06.579Z,85.20
2017-11-24T15:17:34.160Z,85.10
2017-11-24T15:20:02.489Z,84.90
2017-11-24T15:22:30.080Z,85.00
2017-11-24T15:24:57.630Z,85.10
2017-11-24T15:27:25.114Z,86.30
2017-11-24T15:29:52.596Z,85.20
2017-11-24T15:32:20.080Z,85.10
2017-11-24T15:34:47.542Z,85.40
2017-11-24T15:37:15.039Z,85.30
2017-11-24T15:39:42.502Z,85.30
2017-11-24T15:42:10.752Z,85.50
2017-11-24T15:44:38.979Z,86.10
2017-11-24T15:47:06.451Z,86.00
2017-11-24T15:49:33.934Z,86.10
2017-11-24T15:52:01.394Z,85.90
2017-11-24T15:54:28.865Z,86.20
2017-11-24T15:56:57.098Z,85.80
2017-11-24T15:59:24.579Z,85.60
2017-11-24T16:01:52.044Z,85.90
2017-11-24T16:04:19.544Z,86.10
2017-11-24T16:06:47.109Z,86.00
2017-11-24T16:09:14.615Z,86.00
2017-11-24T16:11:42.082Z,86.10
2017-11-24T16:14:10.315Z,87.20
2017-11-24T16:16:37.806Z,86.30
2017-11-24T16:19:05.362Z,86.80
2017-11-24T16:21:32.831Z,86.80
2017-11-24T16:24:00.290Z,87.40
2017-11-24T16:26:28.655Z,88.60
2017-11-24T16:28:56.123Z,88.50
2017-11-24T16:31:24.381Z,89.40
2017-11-24T16:33:51.940Z,88.70
2017-11-24T16:36:19.517Z,88.80
2017-11-24T16:38:47.795Z,88.80
2017-11-24T16:41:16.051Z,88.60
2017-11-24T16:43:43.515Z,88.40
2017-11-24T16:46:11.061Z,88.60
2017-11-24T16:48:38.526Z,88.80
2017-11-24T16:51:05.984Z,88.20
2017-11-24T16:53:33.598Z,88.40
2017-11-24T16:56:01.056Z,88.50
2017-11-24T16:58:28.524Z,88.50
2017-11-24T17:00:56.009Z,89.10
2017-11-24T17:03:24.986Z,88.30
2017-11-24T17:05:52.463Z,88.30
2017-11-24T17:08:19.936Z,88.20
2017-11-24T17:10:48.162Z,88.10
2017-11-24T17:13:15.647Z,88.10
2017-11-24T17:15:43.104Z,87.90
2017-11-24T17:18:10.550Z,87.90
2017-11-24T17:20:38.128Z,87.80
2017-11-24T17:23:05.678Z,88.10
2017-11-24T17:25:33.148Z,88.10
2017-11-24T17:28:00.701Z,88.60
2017-11-24T17:30:29.670Z,88.40
2017-11-24T17:32:57.143Z,88.40
2017-11-24T17:35:24.656Z,88.40
2017-11-24T17:37:52.170Z,88.40
2017-11-24T17:40:19.632Z,88.30
2017-11-24T17:42:47.859Z,88.80
2017-11-24T17:45:15.328Z,88.70
2017-11-24T17:47:42.965Z,88.90
2017-11-24T17:50:10.420Z,89.00
2017-11-24T17:52:37.886Z,88.70
2017-11-24T17:55:05.379Z,89.00
2017-11-24T17:57:32.849Z,89.10
2017-11-24T18:00:01.115Z,89.00
2017-11-24T18:02:28.569Z,88.90
2017-11-24T18:04:56.027Z,89.10
2017-11-24T18:07:23.483Z,89.20
2017-11-24T18:09:50.936Z,89.20
2017-11-24T18:12:18.418Z,89.20
2017-11-24T18:14:46.645Z,88.70
2017-11-24T18:17:14.123Z,88.70
2017-11-24T18:19:41.683Z,88.60
2017-11-24T18:22:09.138Z,88.50
2017-11-24T18:24:36.603Z,88.60
2017-11-24T18:27:04.844Z,89.20
2017-11-24T18:29:32.331Z,89.00
2017-11-24T18:31:59.786Z,88.90
2017-11-24T18:34:27.241Z,88.90
2017-11-24T18:36:54.690Z,89.10
2017-11-24T18:39:22.171Z,89.20
2017-11-24T18:41:49.614Z,89.10
2017-11-24T18:44:17.099Z,89.30
2017-11-24T18:46:45.310Z,89.00
2017-11-24T18:49:12.854Z,89.10
2017-11-24T18:51:40.318Z,89.10
2017-11-24T18:54:07.778Z,89.40
2017-11-24T18:56:35.280Z,89.40
2017-11-24T18:59:02.726Z,89.30
2017-11-24T19:01:30.201Z,89.50
2017-11-24T19:03:58.435Z,89.40
2017-11-24T19:06:25.898Z,89.30
2017-11-24T19:08:53.360Z,89.50
2017-11-24T19:11:20.826Z,89.40
2017-11-24T19:13:48.288Z,89.90
2017-11-24T19:16:15.768Z,90.00
2017-11-24T19:18:44.005Z,90.00
2017-11-24T19:21:11.468Z,89.90
2017-11-24T19:23:39.031Z,90.00
2017-11-24T19:26:06.502Z,89.90
2017-11-24T19:28:34.776Z,89.70
2017-11-24T19:31:02.225Z,89.60
2017-11-24T19:33:29.682Z,89.60
2017-11-24T19:35:57.141Z,89.60
2017-11-24T19:38:24.622Z,89.80
2017-11-24T19:40:52.845Z,89.50
2017-11-24T19:43:20.518Z,89.40
2017-11-24T19:45:48.088Z,89.30
2017-11-24T19:48:15.640Z,89.00
2017-11-24T19:50:43.117Z,88.90
2017-11-24T19:53:11.380Z,89.70
2017-11-24T19:55:38.838Z,88.80
2017-11-24T19:58:06.307Z,89.00
2017-11-24T20:00:34.540Z,89.10
2017-11-24T20:03:01.994Z,89.10
2017-11-24T20:05:29.471Z,88.70
2017-11-24T20:07:57.094Z,88.80
2017-11-24T20:10:24.594Z,88.60
2017-11-24T20:12:52.354Z,88.50
2017-11-24T20:15:19.816Z,88.60
2017-11-24T20:17:47.328Z,88.70
2017-11-24T20:20:14.887Z,88.70
2017-11-24T20:22:42.381Z,88.50
2017-11-24T20:25:09.885Z,88.30
2017-11-24T20:27:37.367Z,88.30
2017-11-24T20:30:04.918Z,88.00
2017-11-24T20:32:32.402Z,87.80
2017-11-24T20:34:59.873Z,88.00
2017-11-24T20:37:27.339Z,88.00
2017-11-24T20:39:54.885Z,88.10
2017-11-24T20:42:22.460Z,88.00
2017-11-24T20:44:50.202Z,88.00
2017-11-24T20:47:17.656Z,87.80
2017-11-24T20:49:45.119Z,87.90
2017-11-24T20:52:12.688Z,87.90
2017-11-24T20:54:40.422Z,88.60
2017-11-24T20:57:07.887Z,87.90
2017-11-24T20:59:35.421Z,88.50
2017-11-24T21:02:02.985Z,88.80
2017-11-24T21:04:30.462Z,88.90
2017-11-24T21:06:57.956Z,89.00
2017-11-24T21:09:26.193Z,88.70
2017-11-24T21:11:53.662Z,88.60
2017-11-24T21:14:21.122Z,88.60
2017-11-24T21:16:48.682Z,88.60
2017-11-24T21:19:17.061Z,88.20
2017-11-24T21:21:44.677Z,88.20
2017-11-24T21:24:12.218Z,87.90
2017-11-24T21:26:39.704Z,87.70
2017-11-24T21:29:07.168Z,87.90
2017-11-24T21:31:34.633Z,87.80
2017-11-24T21:34:02.270Z,87.90
2017-11-24T21:36:29.999Z,87.80
2017-11-24T21:38:58.250Z,88.00
2017-11-24T21:41:25.820Z,88.00
2017-11-24T21:43:53.279Z,88.30
2017-11-24T21:46:21.513Z,88.50
2017-11-24T21:48:48.989Z,88.30
2017-11-24T21:51:16.559Z,88.30
2017-11-24T21:53:44.026Z,88.20
2017-11-24T21:56:12.292Z,87.90
2017-11-24T21:58:39.760Z,87.70
2017-11-24T22:01:08.159Z,88.60
2017-11-24T22:03:35.635Z,87.80
2017-11-24T22:06:03.094Z,87.80
2017-11-24T22:08:30.567Z,87.80
2017-11-24T22:10:58.124Z,87.80
2017-11-24T22:13:25.649Z,87.80
2017-11-24T22:15:53.118Z,87.60
2017-11-24T22:18:20.631Z,87.60
2017-11-24T22:20:48.138Z,87.40
2017-11-24T22:23:15.590Z,87.20
2017-11-24T22:25:43.097Z,87.00
2017-11-24T22:28:10.558Z,87.10
2017-11-24T22:30:38.035Z,87.00
2017-11-24T22:33:06.352Z,87.60
2017-11-24T22:35:33.825Z,87.50
2017-11-24T22:38:01.288Z,87.90
2017-11-24T22:40:28.786Z,88.00
2017-11-24T22:42:57.034Z,88.10
2017-11-24T22:45:24.506Z,88.00
2017-11-24T22:47:52.757Z,88.20
2017-11-24T22:50:20.230Z,88.00
2017-11-24T22:52:47.690Z,88.00
2017-11-24T22:55:15.152Z,88.50
2017-11-24T22:57:43.379Z,88.30
2017-11-24T23:00:10.853Z,88.20
2017-11-24T23:02:38.325Z,88.00
2017-11-24T23:05:05.794Z,88.00
2017-11-24T23:07:34.112Z,89.10
2017-11-24T23:10:01.571Z,88.30
2017-11-24T23:12:29.053Z,88.40
2017-11-24T23:14:56.529Z,88.40
2017-11-24T23:17:24.078Z,88.30
2017-11-24T23:19:51.537Z,87.90
2017-11-24T23:22:19.101Z,88.00
2017-11-24T23:24:46.573Z,88.20
2017-11-24T23:27:14.833Z,88.50
2017-11-24T23:29:42.307Z,88.50
2017-11-24T23:32:10.543Z,88.90
2017-11-24T23:34:38.006Z,88.80
2017-11-24T23:37:05.470Z,89.00
2017-11-24T23:39:33.042Z,89.20
2017-11-24T23:42:00.594Z,89.00
2017-11-24T23:44:28.151Z,88.80
2017-11-24T23:46:55.644Z,88.90
2017-11-24T23:49:23.900Z,89.00
2017-11-24T23:51:51.377Z,88.90
2017-11-24T23:54:18.851Z,89.40
2017-11-24T23:56:46.333Z,88.60
2017-11-24T23:59:13.823Z,88.70
